Flight Track Log - Related Links

Times and Time Zones

All times are in EDT time to prevent confusion due to time zone crossing. See the SKW6306 flight status page for this flight to view local times or setup timezone preferences in your user account.

Time Position Orientation Groundspeed Altitude Reporting Facility
EDT Latitude Longitude Course Direction KTS MPH feet Rate Location/Type
Sat 09:57:52 PM 39.9500 -104.6833 346° North 222 255 7,500  Level Denver TRACON
Sat 09:59:04 PM 40.0333 -104.6667 North 279 321 9,500 1,900 Climbing Denver TRACON
Sat 09:59:52 PM 40.1000 -104.6667 360° North 295 339 11,300 2,215 Climbing Denver TRACON
Sat 10:00:09 PM 40.1183 -104.6733 344° North 295 339 11,900 2,154 Climbing Denver Center
Sat 10:01:10 PM 40.2036 -104.6961 348° North 311 358 14,100 1,867 Climbing Denver Center
Sat 10:02:24 PM 40.2969 -104.7206 349° North 318 366 16,100 1,778 Climbing Denver Center
Sat 10:03:00 PM 40.4346 -104.8559 346° North  Level FlightAware Approximate
Sat 10:03:25 PM 40.4094 -104.7511 348° North 336 387 18,100  Level Denver Center
Sat 10:04:27 PM 40.5058 -104.7761 349° North 353 406 19,700 1,366 Climbing Denver Center
Sat 10:05:28 PM 40.6017 -104.8036 348° North 352 405 20,900 1,328 Climbing Denver Center
Sat 10:06:29 PM 40.7036 -104.8292 349° North 369 425 22,400 1,171 Climbing Denver Center
Sat 10:07:31 PM 40.8078 -104.8675 344° North 358 412 23,300 1,122 Climbing Denver Center
Sat 10:08:32 PM 40.9025 -104.9244 336° Northwest 374 430 24,700 1,122 Climbing Denver Center
Sat 10:09:34 PM 40.9803 -105.0092 321° Northwest 363 418 25,600 927 Climbing Denver Center
Sat 10:10:35 PM 41.0611 -105.0944 322° Northwest 367 422 26,600 984 Climbing Denver Center
Sat 10:11:36 PM 41.1514 -105.1919 321° Northwest 373 429 27,600 878 Climbing Denver Center
Sat 10:12:38 PM 41.2306 -105.2783 321° Northwest 381 438 28,400 732 Climbing Denver Center
Sat 10:13:39 PM 41.3100 -105.3619 322° Northwest 381 438 29,100 634 Climbing Denver Center
Sat 10:14:41 PM 41.4044 -105.4614 322° Northwest 385 443 29,700 780 Climbing Denver Center
Sat 10:15:42 PM 41.4850 -105.5483 321° Northwest 388 447 30,700 689 Climbing Denver Center
Sat 10:16:43 PM 41.5803 -105.6514 321° Northwest 393 452 31,100 439 Climbing Denver Center
Sat 10:17:45 PM 41.6631 -105.7397 321° Northwest 396 456 31,600 439 Climbing Denver Center
Sat 10:18:46 PM 41.7472 -105.8303 321° Northwest 401 461 32,000 195 Climbing Denver Center
Sat 10:19:48 PM 41.8489 -105.9408 321° Northwest 416 479 32,000  Level Denver Center
Sat 10:20:49 PM 41.9369 -106.0375 321° Northwest 424 488 32,000  Level Denver Center
Sat 10:21:51 PM 42.0267 -106.1350 321° Northwest 428 493 32,000  Level Denver Center
Sat 10:22:52 PM 42.1292 -106.2489 321° Northwest 423 487 32,000  Level Denver Center
Sat 10:23:53 PM 42.2306 -106.3256 331° Northwest 442 509 32,000  Level Denver Center
Sat 10:24:55 PM 42.3564 -106.3950 338° Northwest 437 503 32,000  Level Denver Center
Sat 10:25:56 PM 42.4539 -106.4714 330° Northwest 421 484 32,000  Level Denver Center
Sat 10:26:58 PM 42.5386 -106.5694 320° Northwest 418 481 32,000  Level Denver Center
Sat 10:28:11 PM 42.6436 -106.6744 324° Northwest 419 482 32,000  Level Denver Center
Sat 10:29:13 PM 42.7650 -106.7950 324° Northwest 423 487 32,000  Level Denver Center
Sat 10:30:14 PM 42.8553 -106.8850 324° Northwest 420 483 32,000  Level Denver Center
Sat 10:30:44 PM 42.9011 -106.9328 323° Northwest 424 488 32,000  Level Salt Lake Center
Sat 10:31:46 PM 42.9972 -107.0294 324° Northwest 424 488 32,000  Level Salt Lake Center
Sat 10:32:47 PM 43.1033 -107.1358 324° Northwest 422 486 32,000  Level Salt Lake Center
Sat 10:33:49 PM 43.1925 -107.2311 322° Northwest 424 488 32,000  Level Salt Lake Center
Sat 10:34:50 PM 43.2839 -107.3233 324° Northwest 425 489 32,000  Level Salt Lake Center
Sat 10:35:52 PM 43.3919 -107.4322 324° Northwest 429 494 32,000  Level Salt Lake Center
Sat 10:36:53 PM 43.4836 -107.5267 323° Northwest 430 495 32,000 -195 Level Salt Lake Center
Sat 10:37:55 PM 43.5908 -107.6367 323° Northwest 430 495 31,600 -1,415 Descending Salt Lake Center
Sat 10:38:56 PM 43.6881 -107.7344 324° Northwest 444 511 29,100 -2,390 Descending Salt Lake Center
Sat 10:39:58 PM 43.7797 -107.8283 324° Northwest 433 498 26,700 -2,537 Descending Salt Lake Center
Sat 10:40:59 PM 43.8831 -107.9378 323° Northwest 421 484 23,900 -2,537 Descending Salt Lake Center
Sat 10:42:01 PM 43.9719 -108.0286 324° Northwest 415 478 21,500 -2,439 Descending Salt Lake Center
Sat 10:43:02 PM 44.0717 -108.1369 322° Northwest 410 472 18,900 -2,244 Descending Salt Lake Center
Sat 10:44:04 PM 44.1553 -108.2231 324° Northwest 401 461 16,900 -1,902 Descending Salt Lake Center
Sat 10:45:05 PM 44.2342 -108.3069 323° Northwest 388 447 15,000 -1,951 Descending Salt Lake Center
Sat 10:46:07 PM 44.3222 -108.4006 323° Northwest 370 426 12,900 -1,463 Descending Salt Lake Center
Sat 10:47:08 PM 44.3956 -108.4781 323° Northwest 357 411 12,000 -1,073 Descending Salt Lake Center
Sat 10:48:10 PM 44.4594 -108.5469 322° Northwest 330 380 10,700 -1,366 Descending Salt Lake Center
Sat 10:49:11 PM 44.5200 -108.6122 322° Northwest 304 350 9,200 -878 Descending Salt Lake Center
Sat 10:50:13 PM 44.5886 -108.6844 323° Northwest 289 333 8,900 -585 Descending Salt Lake Center
Sat 10:51:14 PM 44.6481 -108.7533 321° Northwest 265 305 8,000 -689 Descending Salt Lake Center
Sat 10:52:15 PM 44.6336 -108.8256 254° West 221 254 7,500 -390 Descending Salt Lake Center
Sat 10:53:17 PM 44.6003 -108.8861 232° Southwest 209 241 7,200 -634 Descending Salt Lake Center
Sat 10:54:18 PM 44.5639 -108.9497 231° Southwest 197 227 6,200 -787 Descending Salt Lake Center
Sat 10:55:19 PM 44.5375 -108.9972 232° Southwest 189 217 5,600 -590 Descending Salt Lake Center
Sat 10:57:00 PM 44.5167 -109.0167 270° West  Level FlightAware Approximate
Sat 11:04:00 PM 44.5202 -109.0238 270° West  Level Estimated

Login

Don't have an account? Register now (free) for customized features, flight alerts, and more!